createdAt,value
2018-05-08T00:00:41.733Z,12.70
2018-05-08T00:01:41.791Z,12.79
2018-05-08T00:02:41.851Z,12.66
2018-05-08T00:03:41.911Z,12.67
2018-05-08T00:04:41.977Z,12.56
2018-05-08T00:05:42.031Z,12.63
2018-05-08T00:06:42.093Z,12.59
2018-05-08T00:07:42.152Z,12.62
2018-05-08T00:08:42.212Z,12.62
2018-05-08T00:09:42.272Z,12.67
2018-05-08T00:10:42.332Z,12.69
2018-05-08T00:11:42.397Z,12.70
2018-05-08T00:12:42.458Z,12.70
2018-05-08T00:13:42.514Z,12.71
2018-05-08T00:14:42.575Z,12.76
2018-05-08T00:15:42.633Z,12.79
2018-05-08T00:16:42.692Z,12.84
2018-05-08T00:17:42.758Z,12.84
2018-05-08T00:18:42.815Z,12.73
2018-05-08T00:19:42.876Z,12.87
2018-05-08T00:20:42.936Z,12.88
2018-05-08T00:21:42.995Z,12.81
2018-05-08T00:22:43.056Z,12.76
2018-05-08T00:23:43.123Z,12.71
2018-05-08T00:24:43.180Z,12.74
2018-05-08T00:25:43.242Z,12.70
2018-05-08T00:26:43.297Z,12.71
2018-05-08T00:27:43.354Z,12.54
2018-05-08T00:28:43.415Z,12.55
2018-05-08T00:29:43.489Z,12.44
2018-05-08T00:30:43.538Z,12.49
2018-05-08T00:31:43.598Z,12.43
2018-05-08T00:32:43.657Z,12.37
2018-05-08T00:33:43.718Z,12.25
2018-05-08T00:34:43.778Z,12.23
2018-05-08T00:35:43.837Z,12.22
2018-05-08T00:36:43.904Z,12.31
2018-05-08T00:37:43.956Z,12.25
2018-05-08T00:38:44.019Z,12.21
2018-05-08T00:39:44.081Z,12.16
2018-05-08T00:40:44.138Z,12.23
2018-05-08T00:41:44.197Z,12.12
2018-05-08T00:42:44.258Z,12.15
2018-05-08T00:43:44.318Z,12.19
2018-05-08T00:44:44.383Z,12.23
2018-05-08T00:45:44.440Z,12.31
2018-05-08T00:46:44.500Z,12.19
2018-05-08T00:47:44.558Z,12.19
2018-05-08T00:48:44.618Z,12.11
2018-05-08T00:49:44.680Z,12.08
2018-05-08T00:50:44.742Z,12.11
2018-05-08T00:51:44.797Z,12.21
2018-05-08T00:52:44.861Z,12.25
2018-05-08T00:53:44.918Z,12.13
2018-05-08T00:54:44.978Z,12.04
2018-05-08T00:55:45.038Z,12.04
2018-05-08T00:56:45.098Z,12.04
2018-05-08T00:57:45.158Z,11.94
2018-05-08T00:58:45.217Z,11.98
2018-05-08T00:59:45.277Z,11.87
2018-05-08T01:00:45.337Z,11.85
2018-05-08T01:01:45.398Z,11.85
2018-05-08T01:02:45.457Z,11.78
2018-05-08T01:03:45.516Z,11.78
2018-05-08T01:04:45.583Z,11.78
2018-05-08T01:05:45.637Z,11.84
2018-05-08T01:06:45.698Z,11.81
2018-05-08T01:07:45.757Z,11.85
2018-05-08T01:08:45.815Z,11.75
2018-05-08T01:09:45.881Z,11.79
2018-05-08T01:10:45.936Z,11.74
2018-05-08T01:11:45.997Z,11.72
2018-05-08T01:12:46.055Z,11.77
2018-05-08T01:13:46.116Z,11.75
2018-05-08T01:14:46.179Z,11.77
2018-05-08T01:15:46.238Z,11.70
2018-05-08T01:16:46.296Z,11.78
2018-05-08T01:17:46.355Z,11.70
2018-05-08T01:18:46.415Z,11.67
2018-05-08T01:19:46.474Z,11.64
2018-05-08T01:20:46.532Z,11.64
2018-05-08T01:21:46.593Z,11.59
2018-05-08T01:22:46.655Z,11.64
2018-05-08T01:23:46.713Z,11.60
2018-05-08T01:24:46.772Z,11.46
2018-05-08T01:25:46.834Z,11.56
2018-05-08T01:26:46.893Z,11.63
2018-05-08T01:27:46.950Z,11.66
2018-05-08T01:28:47.013Z,11.48
2018-05-08T01:29:47.072Z,11.53
2018-05-08T01:30:47.131Z,11.57
2018-05-08T01:31:47.191Z,11.57
2018-05-08T01:32:47.249Z,11.69
2018-05-08T01:33:47.310Z,11.64
2018-05-08T01:34:47.369Z,11.56
2018-05-08T01:35:47.428Z,11.60
2018-05-08T01:36:47.488Z,11.62
2018-05-08T01:37:48.042Z,11.62
2018-05-08T01:38:47.608Z,11.64
2018-05-08T01:39:47.667Z,11.67
2018-05-08T01:40:47.726Z,11.75
2018-05-08T01:41:47.787Z,11.75
2018-05-08T01:42:47.847Z,11.78
2018-05-08T01:43:47.906Z,11.78
2018-05-08T01:44:47.966Z,11.78
2018-05-08T01:45:48.025Z,11.69
2018-05-08T01:46:48.089Z,11.67
2018-05-08T01:47:48.145Z,11.46
2018-05-08T01:48:48.202Z,11.42
2018-05-08T01:50:01.000Z,11.44
2018-05-08T01:50:48.325Z,11.45
2018-05-08T01:51:48.387Z,11.41
2018-05-08T01:52:48.443Z,11.46
2018-05-08T01:53:48.502Z,11.54
2018-05-08T01:54:48.563Z,11.49
2018-05-08T01:55:48.621Z,11.42
2018-05-08T01:56:48.931Z,11.48
2018-05-08T01:57:48.741Z,11.30
2018-05-08T01:58:48.800Z,11.23
2018-05-08T01:59:48.860Z,11.20
2018-05-08T02:00:48.920Z,11.20
2018-05-08T02:01:48.978Z,11.28
2018-05-08T02:02:49.039Z,11.44
2018-05-08T02:03:49.098Z,11.33
2018-05-08T02:04:49.158Z,11.27
2018-05-08T02:05:49.217Z,11.24
2018-05-08T02:06:49.276Z,11.13
2018-05-08T02:07:49.336Z,11.16
2018-05-08T02:08:49.397Z,11.13
2018-05-08T02:09:49.455Z,11.13
2018-05-08T02:10:49.515Z,11.20
2018-05-08T02:11:49.574Z,11.13
2018-05-08T02:12:49.634Z,11.21
2018-05-08T02:13:49.694Z,11.17
2018-05-08T02:14:49.753Z,11.16
2018-05-08T02:15:49.813Z,11.21
2018-05-08T02:16:49.878Z,11.33
2018-05-08T02:17:49.937Z,11.28
2018-05-08T02:18:50.241Z,11.13
2018-05-08T02:19:50.051Z,11.09
2018-05-08T02:20:50.110Z,11.03
2018-05-08T02:21:50.169Z,11.19
2018-05-08T02:22:50.232Z,11.11
2018-05-08T02:23:50.288Z,11.20
2018-05-08T02:24:50.348Z,11.13
2018-05-08T02:25:50.422Z,11.13
2018-05-08T02:26:50.466Z,11.28
2018-05-08T02:27:50.526Z,11.31
2018-05-08T02:28:50.586Z,11.33
2018-05-08T02:29:50.645Z,11.33
2018-05-08T02:30:50.706Z,11.26
2018-05-08T02:31:50.763Z,11.27
2018-05-08T02:32:50.828Z,11.20
2018-05-08T02:33:50.882Z,11.16
2018-05-08T02:34:50.944Z,11.12
2018-05-08T02:35:51.000Z,11.12
2018-05-08T02:36:51.313Z,11.06
2018-05-08T02:37:51.119Z,11.08
2018-05-08T02:38:51.180Z,11.16
2018-05-08T02:39:51.239Z,11.09
2018-05-08T02:40:51.302Z,11.03
2018-05-08T02:41:51.357Z,10.98
2018-05-08T02:42:51.416Z,10.84
2018-05-08T02:43:51.475Z,10.83
2018-05-08T02:44:51.534Z,10.95
2018-05-08T02:45:51.595Z,10.75
2018-05-08T02:46:51.658Z,10.95
2018-05-08T02:47:51.713Z,10.86
2018-05-08T02:48:51.772Z,10.93
2018-05-08T02:49:51.837Z,10.90
2018-05-08T02:50:51.892Z,10.88
2018-05-08T02:51:51.951Z,10.86
2018-05-08T02:52:52.010Z,10.86
2018-05-08T02:53:52.071Z,10.86
2018-05-08T02:54:52.128Z,10.90
2018-05-08T02:55:52.192Z,10.87
2018-05-08T02:56:52.247Z,10.91
2018-05-08T02:57:52.307Z,10.94
2018-05-08T02:58:52.364Z,10.86
2018-05-08T02:59:52.424Z,10.84
2018-05-08T03:00:52.484Z,10.84
2018-05-08T03:01:52.546Z,10.81
2018-05-08T03:02:52.605Z,10.88
2018-05-08T03:03:52.664Z,10.83
2018-05-08T03:04:52.720Z,10.87
2018-05-08T03:05:52.784Z,10.91
2018-05-08T03:06:52.839Z,10.86
2018-05-08T03:07:52.899Z,10.90
2018-05-08T03:08:52.958Z,10.87
2018-05-08T03:09:53.029Z,10.81
2018-05-08T03:10:53.077Z,10.81
2018-05-08T03:11:53.136Z,10.75
2018-05-08T03:12:53.196Z,10.68
2018-05-08T03:13:53.254Z,10.78
2018-05-08T03:14:53.314Z,10.83
2018-05-08T03:15:53.371Z,10.81
2018-05-08T03:16:53.431Z,10.87
2018-05-08T03:17:53.495Z,10.69
2018-05-08T03:18:53.550Z,10.76
2018-05-08T03:19:53.609Z,10.75
2018-05-08T03:20:53.668Z,10.81
2018-05-08T03:21:53.728Z,10.84
2018-05-08T03:22:53.787Z,10.70
2018-05-08T03:23:53.845Z,10.75
2018-05-08T03:24:53.904Z,10.66
2018-05-08T03:25:53.964Z,10.52
2018-05-08T03:26:54.026Z,10.44
2018-05-08T03:27:54.081Z,10.46
2018-05-08T03:28:54.141Z,10.32
2018-05-08T03:29:54.200Z,10.38
2018-05-08T03:30:54.260Z,10.49
2018-05-08T03:31:54.319Z,10.34
2018-05-08T03:32:54.376Z,10.32
2018-05-08T03:33:54.440Z,10.44
2018-05-08T03:34:54.499Z,10.35
2018-05-08T03:35:54.558Z,10.24
2018-05-08T03:36:54.613Z,10.29
2018-05-08T03:37:54.672Z,10.32
2018-05-08T03:38:54.983Z,10.44
2018-05-08T03:39:54.791Z,10.38
2018-05-08T03:40:55.159Z,10.58
2018-05-08T03:41:54.910Z,10.63
2018-05-08T03:42:54.968Z,10.69
2018-05-08T03:43:55.027Z,10.66
2018-05-08T03:44:55.085Z,10.55
2018-05-08T03:45:55.145Z,10.49
2018-05-08T03:46:55.205Z,10.58
2018-05-08T03:47:55.262Z,10.55
2018-05-08T03:48:55.380Z,10.60
2018-05-08T03:49:55.381Z,10.63
2018-05-08T03:50:55.441Z,10.55
2018-05-08T03:51:55.499Z,10.47
2018-05-08T03:52:55.557Z,10.42
2018-05-08T03:53:55.618Z,10.32
2018-05-08T03:54:55.675Z,10.28
2018-05-08T03:55:55.892Z,10.18
2018-05-08T03:56:55.795Z,10.18
2018-05-08T03:57:55.853Z,10.24
2018-05-08T03:58:55.915Z,10.20
2018-05-08T03:59:55.970Z,10.09
2018-05-08T04:00:56.034Z,10.09
2018-05-08T04:01:56.089Z,10.07
2018-05-08T04:02:56.149Z,10.09
2018-05-08T04:03:56.210Z,10.06
2018-05-08T04:04:56.266Z,10.14
2018-05-08T04:05:56.325Z,10.10
2018-05-08T04:06:56.383Z,10.14
2018-05-08T04:07:56.441Z,10.14
2018-05-08T04:08:56.499Z,10.07
2018-05-08T04:09:56.560Z,10.11
2018-05-08T04:10:56.618Z,10.16
2018-05-08T04:11:56.676Z,10.18
2018-05-08T04:12:56.735Z,10.29
2018-05-08T04:13:56.794Z,10.29
2018-05-08T04:14:56.860Z,10.34
2018-05-08T04:15:56.911Z,10.36
2018-05-08T04:16:56.971Z,10.32
2018-05-08T04:17:57.030Z,10.38
2018-05-08T04:18:57.088Z,10.31
2018-05-08T04:19:57.148Z,10.25
2018-05-08T04:20:57.260Z,10.07
2018-05-08T04:21:57.272Z,10.06
2018-05-08T04:22:57.325Z,10.01
2018-05-08T04:23:57.381Z,9.96
2018-05-08T04:24:57.459Z,9.98
2018-05-08T04:25:57.501Z,9.98
2018-05-08T04:26:57.559Z,10.06
2018-05-08T04:27:57.618Z,10.04
2018-05-08T04:28:57.695Z,9.98
2018-05-08T04:29:57.736Z,10.09
2018-05-08T04:30:57.794Z,9.98
2018-05-08T04:31:57.854Z,10.02
2018-05-08T04:32:57.911Z,10.06
2018-05-08T04:33:57.971Z,10.06
2018-05-08T04:34:58.029Z,10.09
2018-05-08T04:35:58.088Z,10.09
2018-05-08T04:36:58.148Z,10.16
2018-05-08T04:37:58.207Z,10.09
2018-05-08T04:38:58.265Z,10.10
2018-05-08T04:39:58.323Z,10.16
2018-05-08T04:40:58.532Z,10.02
2018-05-08T04:41:58.442Z,10.10
2018-05-08T04:42:58.501Z,10.02
2018-05-08T04:43:58.559Z,10.10
2018-05-08T04:44:58.617Z,10.07
2018-05-08T04:45:58.677Z,10.10
2018-05-08T04:46:58.740Z,10.13
2018-05-08T04:47:58.795Z,10.06
2018-05-08T04:48:58.853Z,9.99
2018-05-08T04:49:58.913Z,10.06
2018-05-08T04:50:58.972Z,10.06
2018-05-08T04:51:59.036Z,10.07
2018-05-08T04:52:59.090Z,9.99
2018-05-08T04:53:59.153Z,10.10
2018-05-08T04:54:59.208Z,10.20
2018-05-08T04:55:59.266Z,10.18
2018-05-08T04:56:59.325Z,10.26
2018-05-08T04:57:59.385Z,10.34
2018-05-08T04:58:59.444Z,10.35
2018-05-08T04:59:59.501Z,10.35
2018-05-08T05:00:59.561Z,10.49
2018-05-08T05:01:59.621Z,10.49
2018-05-08T05:02:59.680Z,10.51
2018-05-08T05:03:59.738Z,10.35
2018-05-08T05:04:59.798Z,10.29
2018-05-08T05:06:00.198Z,10.17
2018-05-08T05:06:59.998Z,10.32
2018-05-08T05:08:00.009Z,10.28
2018-05-08T05:09:00.033Z,10.34
2018-05-08T05:10:00.346Z,10.34
2018-05-08T05:11:00.166Z,10.35
2018-05-08T05:12:00.211Z,10.26
2018-05-08T05:13:00.268Z,10.35
2018-05-08T05:14:00.852Z,10.26
2018-05-08T05:15:00.389Z,10.32
2018-05-08T05:16:00.446Z,10.29
2018-05-08T05:17:00.506Z,10.31
2018-05-08T05:18:00.570Z,10.39
2018-05-08T05:19:00.625Z,10.35
2018-05-08T05:20:00.683Z,10.46
2018-05-08T05:21:00.743Z,10.34
2018-05-08T05:22:00.802Z,10.49
2018-05-08T05:23:00.861Z,10.46
2018-05-08T05:24:00.921Z,10.60
2018-05-08T05:25:00.982Z,10.58
2018-05-08T05:26:01.037Z,10.60
2018-05-08T05:27:01.103Z,10.76
2018-05-08T05:28:01.187Z,10.84
2018-05-08T05:29:01.214Z,10.93
2018-05-08T05:30:01.274Z,10.93
2018-05-08T05:31:01.334Z,11.06
2018-05-08T05:32:01.409Z,11.12
2018-05-08T05:33:01.453Z,11.19
2018-05-08T05:34:01.515Z,11.28
2018-05-08T05:35:01.571Z,11.31
2018-05-08T05:36:01.633Z,11.30
2018-05-08T05:37:01.709Z,11.27
2018-05-08T05:38:01.750Z,11.41
2018-05-08T05:39:02.638Z,11.44
2018-05-08T05:40:02.410Z,11.46
2018-05-08T05:41:01.928Z,11.57
2018-05-08T05:42:01.988Z,11.57
2018-05-08T05:43:02.050Z,11.64
2018-05-08T05:44:03.147Z,11.63
2018-05-08T05:45:02.165Z,11.79
2018-05-08T05:46:02.227Z,11.82
2018-05-08T05:47:02.288Z,11.85
2018-05-08T05:48:02.343Z,11.88
2018-05-08T05:49:02.405Z,11.84
2018-05-08T05:50:02.468Z,12.03
2018-05-08T05:51:02.523Z,12.03
2018-05-08T05:52:02.584Z,12.19
2018-05-08T05:53:02.644Z,12.16
2018-05-08T05:54:02.705Z,12.01
2018-05-08T05:55:03.011Z,12.18
2018-05-08T05:56:02.822Z,12.08
2018-05-08T05:57:02.895Z,12.25
2018-05-08T05:58:02.953Z,12.22
2018-05-08T05:59:03.262Z,12.31
2018-05-08T06:00:03.143Z,12.36
2018-05-08T06:01:03.123Z,12.41
2018-05-08T06:02:03.182Z,12.49
2018-05-08T06:03:03.248Z,12.43
2018-05-08T06:04:03.303Z,12.56
2018-05-08T06:05:03.361Z,12.59
2018-05-08T06:06:03.421Z,12.51
2018-05-08T06:07:03.483Z,12.59
2018-05-08T06:08:03.541Z,12.58
2018-05-08T06:09:03.605Z,12.59
2018-05-08T06:10:03.662Z,12.67
2018-05-08T06:11:03.721Z,12.69
2018-05-08T06:12:03.811Z,12.71
2018-05-08T06:13:03.843Z,12.73
2018-05-08T06:14:03.903Z,12.71
2018-05-08T06:15:03.964Z,12.73
2018-05-08T06:16:04.023Z,12.84
2018-05-08T06:17:04.083Z,12.89
2018-05-08T06:18:04.144Z,12.94
2018-05-08T06:19:04.205Z,12.95
2018-05-08T06:20:04.262Z,13.03
2018-05-08T06:21:04.325Z,13.04
2018-05-08T06:22:04.384Z,13.14
2018-05-08T06:23:04.445Z,13.19
2018-05-08T06:24:04.504Z,13.27
2018-05-08T06:25:04.569Z,13.32
2018-05-08T06:26:04.628Z,13.24
2018-05-08T06:27:04.743Z,13.44
2018-05-08T06:28:04.753Z,13.51
2018-05-08T06:29:04.806Z,13.50
2018-05-08T06:30:04.871Z,13.54
2018-05-08T06:31:04.928Z,13.55
2018-05-08T06:32:04.987Z,13.59
2018-05-08T06:33:05.049Z,13.66
2018-05-08T06:34:05.110Z,13.63
2018-05-08T06:35:05.172Z,13.69
2018-05-08T06:36:05.230Z,13.72
2018-05-08T06:37:05.292Z,13.73
2018-05-08T06:38:05.351Z,13.76
2018-05-08T06:39:05.415Z,13.84
2018-05-08T06:40:05.493Z,13.90
2018-05-08T06:41:05.535Z,14.05
2018-05-08T06:42:05.596Z,14.09
2018-05-08T06:43:05.657Z,14.16
2018-05-08T06:44:05.723Z,14.19
2018-05-08T06:45:05.779Z,14.19
2018-05-08T06:46:05.839Z,14.09
2018-05-08T06:47:06.561Z,14.08
2018-05-08T06:48:05.960Z,14.13
2018-05-08T06:49:06.021Z,14.21
2018-05-08T06:50:06.082Z,14.31
2018-05-08T06:51:06.147Z,14.34
2018-05-08T06:52:06.204Z,14.39
2018-05-08T06:53:06.266Z,14.41
2018-05-08T06:54:06.326Z,14.46
2018-05-08T06:55:06.388Z,14.48
2018-05-08T06:56:06.446Z,14.64
2018-05-08T06:57:06.509Z,14.82
2018-05-08T06:58:06.570Z,14.86
2018-05-08T06:59:06.632Z,15.00
2018-05-08T07:00:06.695Z,14.91
2018-05-08T07:01:06.760Z,15.00
2018-05-08T07:02:06.815Z,15.07
2018-05-08T07:03:06.876Z,15.09
2018-05-08T07:04:06.941Z,15.22
2018-05-08T07:05:06.997Z,15.25
2018-05-08T07:06:07.059Z,15.23
2018-05-08T07:07:07.121Z,15.20
2018-05-08T07:08:07.255Z,15.30
2018-05-08T07:09:07.294Z,15.35
2018-05-08T07:10:07.303Z,15.37
2018-05-08T07:11:07.368Z,15.43
2018-05-08T07:12:07.427Z,15.51
2018-05-08T07:13:07.488Z,15.55
2018-05-08T07:14:07.551Z,15.53
2018-05-08T07:15:07.611Z,15.62
2018-05-08T07:16:07.865Z,15.56
2018-05-08T07:17:07.733Z,15.68
2018-05-08T07:18:07.798Z,15.76
2018-05-08T07:19:07.857Z,15.80
2018-05-08T07:20:07.919Z,15.86
2018-05-08T07:21:07.981Z,15.91
2018-05-08T07:22:08.046Z,15.93
2018-05-08T07:23:08.105Z,16.03
2018-05-08T07:24:08.170Z,16.07
2018-05-08T07:25:08.232Z,16.22
2018-05-08T07:26:08.290Z,16.26
2018-05-08T07:27:08.353Z,16.36
2018-05-08T07:28:08.413Z,16.33
2018-05-08T07:29:08.476Z,16.40
2018-05-08T07:30:08.538Z,16.48
2018-05-08T07:31:08.656Z,16.45
2018-05-08T07:32:09.845Z,16.42
2018-05-08T07:33:08.724Z,16.62
2018-05-08T07:34:08.787Z,16.65
2018-05-08T07:35:09.167Z,16.75
2018-05-08T07:36:08.938Z,16.85
2018-05-08T07:37:08.972Z,17.03
2018-05-08T07:38:09.099Z,16.99
2018-05-08T07:39:09.096Z,17.06
2018-05-08T07:40:09.158Z,17.15
2018-05-08T07:41:09.224Z,17.14
2018-05-08T07:42:09.283Z,17.24
2018-05-08T07:43:09.346Z,17.33
2018-05-08T07:44:09.412Z,17.40
2018-05-08T07:45:09.471Z,17.49
2018-05-08T07:46:09.535Z,17.54
2018-05-08T07:47:09.597Z,17.58
2018-05-08T07:48:09.659Z,17.54
2018-05-08T07:49:09.721Z,17.57
2018-05-08T07:50:09.783Z,17.60
2018-05-08T07:51:09.847Z,17.68
2018-05-08T07:52:09.909Z,17.76
2018-05-08T07:53:09.970Z,17.68
2018-05-08T07:54:10.035Z,17.74
2018-05-08T07:55:10.098Z,17.79
2018-05-08T07:56:10.162Z,17.84
2018-05-08T07:57:10.222Z,18.01
2018-05-08T07:58:10.286Z,18.07
2018-05-08T07:59:10.349Z,18.14
2018-05-08T08:00:10.413Z,18.19
2018-05-08T08:01:10.480Z,18.29
2018-05-08T08:02:10.537Z,18.54
2018-05-08T08:03:10.601Z,18.69
2018-05-08T08:04:10.661Z,18.86
2018-05-08T08:05:10.726Z,18.83
2018-05-08T08:06:10.788Z,18.91
2018-05-08T08:07:10.852Z,18.89
2018-05-08T08:08:10.921Z,19.02
2018-05-08T08:09:10.979Z,19.02
2018-05-08T08:10:11.040Z,19.10
2018-05-08T08:11:11.105Z,19.21
2018-05-08T08:12:11.179Z,19.28
2018-05-08T08:13:11.230Z,19.28
2018-05-08T08:14:11.298Z,19.35
2018-05-08T08:15:11.360Z,19.42
2018-05-08T08:16:11.421Z,19.40
2018-05-08T08:17:11.483Z,19.46
2018-05-08T08:18:11.549Z,19.55
2018-05-08T08:19:11.612Z,19.68
2018-05-08T08:20:11.679Z,19.79
2018-05-08T08:21:11.739Z,19.90
2018-05-08T08:22:11.804Z,20.00
2018-05-08T08:23:11.866Z,20.19
2018-05-08T08:24:11.936Z,20.23
2018-05-08T08:25:11.995Z,20.44
2018-05-08T08:26:12.076Z,20.50
2018-05-08T08:27:12.121Z,20.56
2018-05-08T08:28:12.218Z,20.51
2018-05-08T08:29:12.252Z,20.38
2018-05-08T08:30:12.314Z,20.53
2018-05-08T08:31:12.377Z,20.63
2018-05-08T08:32:12.444Z,20.73
2018-05-08T08:33:12.505Z,20.63
2018-05-08T08:34:12.966Z,20.75
2018-05-08T08:35:12.634Z,20.79
2018-05-08T08:36:12.697Z,20.71
2018-05-08T08:37:12.761Z,20.71
2018-05-08T08:38:12.828Z,20.83
2018-05-08T08:39:12.892Z,21.03
2018-05-08T08:40:13.965Z,21.06
2018-05-08T08:41:13.492Z,21.13
2018-05-08T08:42:13.626Z,21.22
2018-05-08T08:43:13.211Z,21.33
2018-05-08T08:44:13.239Z,21.42
2018-05-08T08:45:13.276Z,21.46
2018-05-08T08:46:13.341Z,21.61
2018-05-08T08:47:13.406Z,21.53
2018-05-08T08:48:13.470Z,21.66
2018-05-08T08:49:13.534Z,21.71
2018-05-08T08:50:13.604Z,21.61
2018-05-08T08:51:13.663Z,21.64
2018-05-08T08:52:14.323Z,21.71
2018-05-08T08:53:13.793Z,21.75
2018-05-08T08:54:13.859Z,21.83
2018-05-08T08:55:13.923Z,22.04
2018-05-08T08:56:13.988Z,22.12
2018-05-08T08:57:14.053Z,22.12
2018-05-08T08:58:14.117Z,22.21
2018-05-08T08:59:14.181Z,22.17
2018-05-08T09:00:14.245Z,22.31
2018-05-08T09:01:14.315Z,22.35
2018-05-08T09:02:14.377Z,22.45
2018-05-08T09:03:14.496Z,22.46
2018-05-08T09:04:14.506Z,22.44
2018-05-08T09:05:14.571Z,22.36
2018-05-08T09:06:14.640Z,22.21
2018-05-08T09:07:14.702Z,22.29
2018-05-08T09:08:14.771Z,22.38
2018-05-08T09:09:14.836Z,22.38
2018-05-08T09:10:14.899Z,22.36
2018-05-08T09:11:14.981Z,22.46
2018-05-08T09:12:15.027Z,22.60
2018-05-08T09:13:15.145Z,22.61
2018-05-08T09:14:15.158Z,22.75
2018-05-08T09:15:15.223Z,22.82
2018-05-08T09:16:15.302Z,22.93
2018-05-08T09:17:15.354Z,22.99
2018-05-08T09:18:15.421Z,22.96
2018-05-08T09:19:15.485Z,23.04
2018-05-08T09:20:15.552Z,22.89
2018-05-08T09:21:15.621Z,22.97
2018-05-08T09:22:16.047Z,22.86
2018-05-08T09:23:15.748Z,22.97
2018-05-08T09:24:15.813Z,23.07
2018-05-08T09:25:15.877Z,23.12
2018-05-08T09:26:15.945Z,23.19
2018-05-08T09:27:16.010Z,23.04
2018-05-08T09:28:16.075Z,22.93
2018-05-08T09:29:16.140Z,22.85
2018-05-08T09:30:16.205Z,22.99
2018-05-08T09:31:16.273Z,23.04
2018-05-08T09:32:16.338Z,23.11
2018-05-08T09:33:16.404Z,23.11
2018-05-08T09:34:16.470Z,23.19
2018-05-08T09:35:16.538Z,23.31
2018-05-08T09:36:16.601Z,23.45
2018-05-08T09:37:16.671Z,23.35
2018-05-08T09:38:16.762Z,23.41
2018-05-08T09:39:16.800Z,23.47
2018-05-08T09:40:16.864Z,23.62
2018-05-08T09:41:16.932Z,23.72
2018-05-08T09:42:16.996Z,23.87
2018-05-08T09:43:17.065Z,23.87
2018-05-08T09:44:17.214Z,24.00
2018-05-08T09:45:17.196Z,24.04
2018-05-08T09:46:17.262Z,23.93
2018-05-08T09:47:17.327Z,23.71
2018-05-08T09:48:17.423Z,23.90
2018-05-08T09:49:17.458Z,23.87
2018-05-08T09:50:17.526Z,23.69
2018-05-08T09:51:17.592Z,23.64
2018-05-08T09:52:17.657Z,23.82
2018-05-08T09:53:17.724Z,23.93
2018-05-08T09:54:17.827Z,23.94
2018-05-08T09:55:17.857Z,24.05
2018-05-08T09:56:17.923Z,24.29
2018-05-08T09:57:17.989Z,24.52
2018-05-08T09:58:18.056Z,24.59
2018-05-08T09:59:18.203Z,24.71
2018-05-08T10:00:18.190Z,24.61
2018-05-08T10:01:18.286Z,24.61
2018-05-08T10:02:18.323Z,24.52
2018-05-08T10:03:18.387Z,24.49
2018-05-08T10:04:18.458Z,24.52
2018-05-08T10:05:19.087Z,24.42
2018-05-08T10:06:18.588Z,24.44
2018-05-08T10:07:18.655Z,24.29
2018-05-08T10:08:18.722Z,24.31
2018-05-08T10:09:18.787Z,24.46
2018-05-08T10:10:18.855Z,24.59
2018-05-08T10:11:19.348Z,24.80
2018-05-08T10:12:19.019Z,24.92
2018-05-08T10:13:19.088Z,25.20
2018-05-08T10:14:19.124Z,25.27
2018-05-08T10:15:19.192Z,25.59
2018-05-08T10:16:19.259Z,25.27
2018-05-08T10:17:19.329Z,25.19
2018-05-08T10:18:19.403Z,25.22
2018-05-08T10:19:19.469Z,25.51
2018-05-08T10:20:19.536Z,25.66
2018-05-08T10:21:19.605Z,25.64
2018-05-08T10:22:19.676Z,25.98
2018-05-08T10:23:19.751Z,26.09
2018-05-08T10:24:19.817Z,26.38
2018-05-08T10:25:19.889Z,26.59
2018-05-08T10:26:19.961Z,26.68
2018-05-08T10:27:20.033Z,26.72
2018-05-08T10:28:20.169Z,26.88
2018-05-08T10:29:20.216Z,26.88
2018-05-08T10:30:20.252Z,26.78
2018-05-08T10:31:20.321Z,27.01
2018-05-08T10:32:20.394Z,26.84
2018-05-08T10:33:20.470Z,26.79
2018-05-08T10:34:20.543Z,26.84
2018-05-08T10:35:20.617Z,26.93
2018-05-08T10:36:21.240Z,27.03
2018-05-08T10:37:20.761Z,27.27
2018-05-08T10:38:20.837Z,27.68
2018-05-08T10:39:21.682Z,28.36
2018-05-08T10:40:20.985Z,28.17
2018-05-08T10:41:21.060Z,28.85
2018-05-08T10:42:21.714Z,29.02
2018-05-08T10:43:21.209Z,28.97
2018-05-08T10:44:21.283Z,28.64
2018-05-08T10:45:21.363Z,28.30
2018-05-08T10:46:21.435Z,28.48
2018-05-08T10:47:21.509Z,28.13
2018-05-08T10:48:21.586Z,28.05
2018-05-08T10:49:21.658Z,28.69
2018-05-08T10:50:22.050Z,28.09
2018-05-08T10:51:21.810Z,27.88
2018-05-08T10:52:21.885Z,28.06
2018-05-08T10:53:21.962Z,28.28
2018-05-08T10:54:22.038Z,28.23
2018-05-08T10:55:22.115Z,28.08
2018-05-08T10:56:22.188Z,28.24
2018-05-08T10:57:22.265Z,28.70
2018-05-08T10:58:22.341Z,29.05
2018-05-08T10:59:22.424Z,30.11
2018-05-08T11:00:22.494Z,29.99
2018-05-08T11:01:23.151Z,30.15
2018-05-08T11:02:23.459Z,29.55
2018-05-08T11:03:23.293Z,28.92
2018-05-08T11:04:23.306Z,28.50
2018-05-08T11:05:23.208Z,28.24
2018-05-08T11:06:23.526Z,28.24
2018-05-08T11:07:23.028Z,28.55
2018-05-08T11:08:23.117Z,28.92
2018-05-08T11:09:23.670Z,29.26
2018-05-08T11:10:23.257Z,28.91
2018-05-08T11:11:23.911Z,28.46
2018-05-08T11:12:24.116Z,28.39
2018-05-08T11:13:23.492Z,28.35
2018-05-08T11:14:23.566Z,29.20
2018-05-08T11:15:23.642Z,29.08
2018-05-08T11:16:23.716Z,28.88
2018-05-08T11:17:23.795Z,28.13
2018-05-08T11:18:23.873Z,28.17
2018-05-08T11:19:23.953Z,28.27
2018-05-08T11:20:24.024Z,28.80
2018-05-08T11:21:24.100Z,28.72
2018-05-08T11:22:24.177Z,28.70
2018-05-08T11:23:24.253Z,28.95
2018-05-08T11:24:24.329Z,29.25
2018-05-08T11:25:24.405Z,29.10
2018-05-08T11:26:24.556Z,29.71
2018-05-08T11:27:24.559Z,29.44
2018-05-08T11:28:24.632Z,29.11
2018-05-08T11:29:24.708Z,29.20
2018-05-08T11:30:25.479Z,29.44
2018-05-08T11:31:25.484Z,29.78
2018-05-08T11:32:25.376Z,30.38
2018-05-08T11:33:25.480Z,30.22
2018-05-08T11:34:25.426Z,28.43
2018-05-08T11:35:25.165Z,29.03
2018-05-08T11:36:25.240Z,30.08
2018-05-08T11:37:25.321Z,30.23
2018-05-08T11:38:25.393Z,30.56
2018-05-08T11:39:25.646Z,30.18
2018-05-08T11:40:25.552Z,30.06
2018-05-08T11:41:25.623Z,30.22
2018-05-08T11:42:25.852Z,31.04
2018-05-08T11:43:25.774Z,30.90
2018-05-08T11:44:25.851Z,31.23
2018-05-08T11:45:25.927Z,31.12
2018-05-08T11:46:26.005Z,30.72
2018-05-08T11:47:26.081Z,30.79
2018-05-08T11:48:26.157Z,30.42
2018-05-08T11:49:26.233Z,30.10
2018-05-08T11:50:26.312Z,30.83
2018-05-08T11:51:26.387Z,30.70
2018-05-08T11:52:26.462Z,31.05
2018-05-08T11:53:26.541Z,30.18
2018-05-08T11:54:26.867Z,30.57
2018-05-08T11:55:26.707Z,30.32
2018-05-08T11:56:26.771Z,31.03
2018-05-08T11:57:26.848Z,31.64
2018-05-08T11:58:26.926Z,31.92
2018-05-08T11:59:27.002Z,31.88
2018-05-08T12:00:27.081Z,32.19
2018-05-08T12:01:27.175Z,32.13
2018-05-08T12:02:27.231Z,32.56
2018-05-08T12:03:27.309Z,32.03
2018-05-08T12:04:27.386Z,32.16
2018-05-08T12:05:27.463Z,32.78
2018-05-08T12:06:27.540Z,33.06
2018-05-08T12:07:27.618Z,32.49
2018-05-08T12:08:27.694Z,32.25
2018-05-08T12:09:27.771Z,31.25
2018-05-08T12:10:27.850Z,30.03
2018-05-08T12:11:27.927Z,30.49
2018-05-08T12:12:28.004Z,31.20
2018-05-08T12:13:28.082Z,31.10
2018-05-08T12:14:28.216Z,31.46
2018-05-08T12:15:28.237Z,31.07
2018-05-08T12:16:28.314Z,31.16
2018-05-08T12:17:28.392Z,31.79
2018-05-08T12:18:28.469Z,31.52
2018-05-08T12:19:28.547Z,31.30
2018-05-08T12:20:28.622Z,31.56
2018-05-08T12:21:28.701Z,31.34
2018-05-08T12:22:28.781Z,31.98
2018-05-08T12:23:28.857Z,31.56
2018-05-08T12:24:28.932Z,31.79
2018-05-08T12:25:29.045Z,31.90
2018-05-08T12:26:29.089Z,32.32
2018-05-08T12:27:29.721Z,32.36
2018-05-08T12:28:29.739Z,31.99
2018-05-08T12:29:29.319Z,32.29
2018-05-08T12:30:29.398Z,32.40
2018-05-08T12:31:29.476Z,32.69
2018-05-08T12:32:29.554Z,32.13
2018-05-08T12:33:29.653Z,32.24
2018-05-08T12:34:29.709Z,32.83
2018-05-08T12:35:29.786Z,33.00
2018-05-08T12:36:29.862Z,32.76
2018-05-08T12:37:29.940Z,31.99
2018-05-08T12:38:30.019Z,32.21
2018-05-08T12:39:30.096Z,32.44
2018-05-08T12:40:30.173Z,32.05
2018-05-08T12:41:30.263Z,31.76
2018-05-08T12:42:30.327Z,32.02
2018-05-08T12:43:30.421Z,31.52
2018-05-08T12:44:30.482Z,31.46
2018-05-08T12:45:30.559Z,32.36
2018-05-08T12:46:30.638Z,32.28
2018-05-08T12:47:30.716Z,31.88
2018-05-08T12:48:30.792Z,31.74
2018-05-08T12:49:30.870Z,31.94
2018-05-08T12:50:30.962Z,31.94
2018-05-08T12:51:31.025Z,32.56
2018-05-08T12:52:31.102Z,32.29
2018-05-08T12:53:31.178Z,31.99